createdAt,value
2022-12-17T00:01:30.630Z,100076.47
2022-12-17T00:04:32.162Z,100089.97
2022-12-17T00:07:34.570Z,100082.59
2022-12-17T00:10:35.888Z,100042.03
2022-12-17T00:13:38.894Z,100083.09
2022-12-17T00:16:40.697Z,100081.84
2022-12-17T00:19:41.617Z,100079.78
2022-12-17T00:22:44.112Z,100072.72
2022-12-17T00:25:45.407Z,100046.22
2022-12-17T00:28:46.356Z,100069.34
2022-12-17T00:31:49.180Z,100073.06
2022-12-17T00:34:50.536Z,100072.91
2022-12-17T00:37:53.063Z,100075.88
2022-12-17T00:40:54.467Z,100069.94
2022-12-17T00:43:58.289Z,100073.78
2022-12-17T00:46:59.292Z,100070.53
2022-12-17T00:50:03.294Z,100069.59
2022-12-17T00:53:06.208Z,100069.06
2022-12-17T00:56:07.108Z,100060.13
2022-12-17T00:59:08.064Z,100084.22
2022-12-17T01:02:09.181Z,100083.53
2022-12-17T01:05:10.963Z,100073.50
2022-12-17T01:08:13.992Z,100084.84
2022-12-17T01:11:17.926Z,100086.59
2022-12-17T01:14:19.478Z,100083.94
2022-12-17T01:17:20.717Z,100078.03
2022-12-17T01:20:24.658Z,100091.63
2022-12-17T01:23:24.077Z,100091.56
2022-12-17T01:26:25.467Z,100073.13
2022-12-17T01:29:26.851Z,100074.03
2022-12-17T01:32:28.276Z,100041.53
2022-12-17T01:35:29.703Z,100058.09
2022-12-17T01:38:35.243Z,100065.16
2022-12-17T01:41:36.619Z,100085.22
2022-12-17T01:45:10.934Z,100080.56
2022-12-17T01:48:17.101Z,100092.22
2022-12-17T01:51:18.806Z,100092.00
2022-12-17T01:54:21.693Z,100093.75
2022-12-17T01:57:24.539Z,100033.53
2022-12-17T02:00:27.972Z,100088.88
2022-12-17T02:03:32.713Z,100078.91
2022-12-17T02:06:41.354Z,100097.50
2022-12-17T02:09:53.570Z,100089.19
2022-12-17T02:13:02.137Z,100079.47
2022-12-17T02:16:09.060Z,100090.69
2022-12-17T02:19:15.970Z,100084.50
2022-12-17T02:22:39.216Z,100070.44
2022-12-17T02:25:56.004Z,100073.75
2022-12-17T02:29:07.482Z,100072.72
2022-12-17T02:32:10.795Z,100075.56
2022-12-17T02:35:13.811Z,100082.50
2022-12-17T02:38:14.689Z,100072.16
2022-12-17T02:41:16.836Z,100067.19
2022-12-17T02:44:20.264Z,100073.72
2022-12-17T02:47:25.672Z,100057.44
2022-12-17T02:50:28.262Z,100068.28
2022-12-17T02:53:29.664Z,100066.13
2022-12-17T02:56:30.654Z,99989.44
2022-12-17T02:59:33.701Z,100066.38
2022-12-17T03:02:43.388Z,100066.66
2022-12-17T03:05:45.757Z,100073.97
2022-12-17T03:08:46.894Z,100063.38
2022-12-17T03:11:48.417Z,100082.56
2022-12-17T03:14:50.847Z,100079.81
2022-12-17T03:17:52.212Z,100086.16
2022-12-17T03:20:53.735Z,100079.19
2022-12-17T03:23:55.036Z,100079.91
2022-12-17T03:26:56.042Z,100078.88
2022-12-17T03:29:58.649Z,100064.44
2022-12-17T03:32:59.949Z,100074.88
2022-12-17T03:36:01.340Z,100023.59
2022-12-17T03:39:02.262Z,100059.34
2022-12-17T03:42:04.152Z,100061.78
2022-12-17T03:45:06.684Z,100061.91
2022-12-17T03:48:07.899Z,100058.56
2022-12-17T03:51:09.792Z,100047.41
2022-12-17T03:54:11.025Z,100045.25
2022-12-17T03:57:16.094Z,100052.34
2022-12-17T04:00:19.139Z,100051.19
2022-12-17T04:03:20.185Z,100056.13
2022-12-17T04:06:33.072Z,100057.97
2022-12-17T04:09:33.964Z,100057.78
2022-12-17T04:12:35.380Z,100048.31
2022-12-17T04:15:37.993Z,100045.66
2022-12-17T04:18:39.567Z,100054.59
2022-12-17T04:21:40.842Z,100040.78
2022-12-17T04:24:41.854Z,100053.56
2022-12-17T04:27:43.377Z,100054.31
2022-12-17T04:30:45.728Z,100056.69
2022-12-17T04:33:47.140Z,100003.75
2022-12-17T04:36:48.431Z,100054.72
2022-12-17T04:39:49.855Z,100039.56
2022-12-17T04:42:50.787Z,100025.59
2022-12-17T04:45:53.436Z,100046.63
2022-12-17T04:48:58.052Z,100028.50
2022-12-17T04:51:59.529Z,100028.56
2022-12-17T04:55:00.842Z,100035.59
2022-12-17T04:58:01.766Z,100034.91
2022-12-17T05:01:04.510Z,100029.75
2022-12-17T05:04:05.672Z,100003.47
2022-12-17T05:07:06.701Z,100030.72
2022-12-17T05:10:08.007Z,100035.50
2022-12-17T05:13:15.437Z,100030.09
2022-12-17T05:16:17.743Z,100024.47
2022-12-17T05:19:24.027Z,100032.50
2022-12-17T05:22:25.203Z,100004.34
2022-12-17T05:25:26.883Z,100025.75
2022-12-17T05:28:28.329Z,100014.81
2022-12-17T05:31:42.868Z,99972.25
2022-12-17T05:34:43.843Z,100009.31
2022-12-17T05:37:45.267Z,100026.78
2022-12-17T05:40:46.256Z,100027.38
2022-12-17T05:43:48.547Z,100007.50
2022-12-17T05:46:56.484Z,100036.06
2022-12-17T05:49:57.540Z,100020.94
2022-12-17T05:52:59.073Z,100023.72
2022-12-17T05:56:00.277Z,100035.31
2022-12-17T05:59:01.214Z,100031.16
2022-12-17T06:02:06.275Z,100034.56
2022-12-17T06:05:07.663Z,99995.97
2022-12-17T06:08:08.918Z,100000.59
2022-12-17T06:11:10.328Z,99993.47
2022-12-17T06:14:11.719Z,100036.25
2022-12-17T06:17:14.206Z,100029.16
2022-12-17T06:20:15.111Z,100012.53
2022-12-17T06:23:19.520Z,100031.22
2022-12-17T06:26:20.498Z,100035.09
2022-12-17T06:29:21.891Z,100036.41
2022-12-17T06:32:24.297Z,100031.72
2022-12-17T06:35:26.088Z,100043.34
2022-12-17T06:38:26.841Z,100028.09
2022-12-17T06:41:28.315Z,100033.97
2022-12-17T06:44:29.774Z,100040.66
2022-12-17T06:47:32.078Z,100034.31
2022-12-17T06:50:33.536Z,100042.19
2022-12-17T06:53:34.622Z,100044.84
2022-12-17T06:56:36.022Z,100021.28
2022-12-17T06:59:37.242Z,100047.25
2022-12-17T07:02:38.967Z,100048.41
2022-12-17T07:05:39.885Z,100057.22
2022-12-17T07:08:41.356Z,100061.91
2022-12-17T07:11:42.341Z,100044.97
2022-12-17T07:14:43.907Z,100056.97
2022-12-17T07:17:46.492Z,100042.97
2022-12-17T07:20:47.401Z,100053.19
2022-12-17T07:23:48.784Z,100044.44
2022-12-17T07:26:50.029Z,100061.66
2022-12-17T07:29:59.804Z,100050.78
2022-12-17T07:33:01.977Z,100062.78
2022-12-17T07:36:03.305Z,100065.25
2022-12-17T07:39:04.131Z,100044.13
2022-12-17T07:42:05.437Z,100054.41
2022-12-17T07:45:06.843Z,100064.81
2022-12-17T07:48:14.300Z,100065.41
2022-12-17T07:51:15.669Z,100074.50
2022-12-17T07:54:16.561Z,100080.72
2022-12-17T07:57:17.741Z,100076.31
2022-12-17T08:00:18.996Z,100069.28
2022-12-17T08:03:22.211Z,100030.28
2022-12-17T08:06:24.278Z,100073.44
2022-12-17T08:09:25.725Z,100046.25
2022-12-17T08:12:27.112Z,100069.75
2022-12-17T08:15:28.922Z,100070.28
2022-12-17T08:18:31.746Z,100064.31
2022-12-17T08:21:33.078Z,100070.16
2022-12-17T08:24:33.825Z,100069.06
2022-12-17T08:27:34.605Z,100066.13
2022-12-17T08:30:35.904Z,100053.31
2022-12-17T08:33:38.866Z,100069.69
2022-12-17T08:36:40.432Z,100055.00
2022-12-17T08:39:41.525Z,100047.97
2022-12-17T08:42:48.192Z,100046.78
2022-12-17T08:45:49.465Z,100041.94
2022-12-17T08:48:51.933Z,99993.94
2022-12-17T08:51:53.403Z,100025.44
2022-12-17T08:54:54.659Z,100031.13
2022-12-17T08:57:55.900Z,100035.72
2022-12-17T09:00:57.459Z,100033.41
2022-12-17T09:03:59.917Z,100033.16
2022-12-17T09:07:01.112Z,100017.34
2022-12-17T09:10:02.679Z,100030.59
2022-12-17T09:13:05.070Z,100031.66
2022-12-17T09:16:10.846Z,100022.09
2022-12-17T09:19:13.424Z,99951.16
2022-12-17T09:22:14.736Z,100031.09
2022-12-17T09:25:15.821Z,100029.50
2022-12-17T09:28:19.307Z,100029.25
2022-12-17T09:31:20.724Z,100017.34
2022-12-17T09:34:23.396Z,100002.19
2022-12-17T09:37:24.928Z,100014.59
2022-12-17T09:40:28.592Z,99995.91
2022-12-17T09:43:42.473Z,99953.72
2022-12-17T09:46:48.553Z,99968.72
2022-12-17T09:49:51.654Z,99996.00
2022-12-17T09:52:56.967Z,99998.59
2022-12-17T09:56:05.913Z,100028.16
2022-12-17T09:59:06.772Z,100003.56
2022-12-17T10:02:08.513Z,100023.28
2022-12-17T10:05:10.929Z,100036.09
2022-12-17T10:08:12.940Z,100036.16
2022-12-17T10:11:14.286Z,100025.53
2022-12-17T10:14:15.696Z,99997.09
2022-12-17T10:17:16.485Z,100017.16
2022-12-17T10:20:21.081Z,100032.75
2022-12-17T10:23:22.439Z,100043.44
2022-12-17T10:26:25.502Z,100036.31
2022-12-17T10:29:31.044Z,99998.44
2022-12-17T10:32:51.412Z,100017.31
2022-12-17T10:35:56.883Z,100019.59
2022-12-17T10:38:59.045Z,100053.38
2022-12-17T10:42:01.479Z,100045.06
2022-12-17T10:45:02.974Z,100057.22
2022-12-17T10:48:03.978Z,100053.78
2022-12-17T10:51:06.662Z,100084.72
2022-12-17T10:54:09.988Z,100060.53
2022-12-17T10:57:12.009Z,100051.13
2022-12-17T11:00:13.782Z,100081.34
2022-12-17T11:03:15.139Z,100035.09
2022-12-17T11:06:17.631Z,100080.91
2022-12-17T11:09:17.763Z,100068.25
2022-12-17T11:12:28.650Z,100052.94
2022-12-17T11:15:40.506Z,100085.50
2022-12-17T11:18:46.554Z,100072.56
2022-12-17T11:22:03.345Z,100082.63
2022-12-17T11:25:12.723Z,100006.69
2022-12-17T11:28:33.502Z,99907.34
2022-12-17T11:31:52.554Z,100041.06
2022-12-17T11:35:10.596Z,100058.50
2022-12-17T11:38:21.066Z,100027.06
2022-12-17T11:41:31.439Z,100051.84
2022-12-17T11:44:40.588Z,100054.22
2022-12-17T11:47:56.185Z,100054.94
2022-12-17T11:51:07.005Z,100038.66
2022-12-17T11:54:20.154Z,100050.56
2022-12-17T11:57:28.614Z,100064.94
2022-12-17T12:00:35.640Z,100082.41
2022-12-17T12:03:51.804Z,100079.41
2022-12-17T12:07:00.493Z,100086.75
2022-12-17T12:10:11.279Z,100096.97
2022-12-17T12:13:22.738Z,100107.38
2022-12-17T12:16:31.752Z,100099.09
2022-12-17T12:19:40.868Z,100129.53
2022-12-17T12:22:54.064Z,100123.13
2022-12-17T12:26:06.117Z,100127.22
2022-12-17T12:29:15.511Z,100120.16
2022-12-17T12:32:21.486Z,100103.94
2022-12-17T12:35:26.878Z,100130.06
2022-12-17T12:38:39.447Z,100135.63
2022-12-17T12:41:55.250Z,100108.34
2022-12-17T12:45:02.991Z,100121.59
2022-12-17T12:48:16.367Z,100118.16
2022-12-17T12:51:22.819Z,100142.41
2022-12-17T12:54:40.237Z,100140.88
2022-12-17T12:57:53.684Z,100112.66
2022-12-17T13:00:57.781Z,100156.38
2022-12-17T13:04:10.721Z,100136.84
2022-12-17T13:06:55.950Z,100161.38
2022-12-17T13:09:48.221Z,100162.44
2022-12-17T13:12:44.491Z,100174.38
2022-12-17T13:15:37.680Z,100145.47
2022-12-17T13:18:27.683Z,100179.84
2022-12-17T13:21:27.238Z,100199.81
2022-12-17T13:24:25.221Z,100194.88
2022-12-17T13:27:30.294Z,100200.16
2022-12-17T13:30:25.097Z,100220.94
2022-12-17T13:33:22.798Z,100215.41
2022-12-17T13:36:15.193Z,100243.75
2022-12-17T13:39:06.476Z,100229.84
2022-12-17T13:41:54.725Z,100261.06
2022-12-17T13:44:45.089Z,100261.44
2022-12-17T13:47:32.287Z,100235.94
2022-12-17T13:50:33.994Z,100281.75
2022-12-17T13:53:18.359Z,100284.13
2022-12-17T13:56:03.108Z,100275.03
2022-12-17T13:58:53.095Z,100297.31
2022-12-17T14:01:46.466Z,100266.47
2022-12-17T14:04:32.528Z,100307.03
2022-12-17T14:07:16.282Z,100321.94
2022-12-17T14:10:00.036Z,100321.00
2022-12-17T14:12:44.583Z,100323.88
2022-12-17T14:15:30.180Z,100303.06
2022-12-17T14:18:18.139Z,100310.00
2022-12-17T14:21:03.428Z,100302.03
2022-12-17T14:23:51.319Z,100283.53
2022-12-17T14:26:35.115Z,100287.28
2022-12-17T14:29:24.345Z,100271.75
2022-12-17T14:32:27.123Z,100287.22
2022-12-17T14:35:24.849Z,100280.56
2022-12-17T14:38:48.167Z,100270.19
2022-12-17T14:41:41.111Z,100283.75
2022-12-17T14:44:28.616Z,100255.94
2022-12-17T14:47:20.262Z,100259.31
2022-12-17T14:50:07.861Z,100258.50
2022-12-17T14:52:53.247Z,100268.03
2022-12-17T14:55:39.891Z,100246.97
2022-12-17T14:58:25.373Z,100243.50
2022-12-17T15:01:14.533Z,100256.91
2022-12-17T15:03:59.544Z,100216.69
2022-12-17T15:06:43.404Z,100262.25
2022-12-17T15:09:27.357Z,100269.91
2022-12-17T15:12:12.647Z,100268.63
2022-12-17T15:14:56.666Z,100264.59
2022-12-17T15:17:40.668Z,100251.13
2022-12-17T15:20:25.258Z,100244.94
2022-12-17T15:23:15.923Z,100253.25
2022-12-17T15:25:59.939Z,100246.00
2022-12-17T15:28:45.463Z,100239.06
2022-12-17T15:31:35.216Z,100231.53
2022-12-17T15:34:19.623Z,100262.78
2022-12-17T15:37:03.736Z,100231.44
2022-12-17T15:39:47.730Z,100270.81
2022-12-17T15:42:49.571Z,100248.31
2022-12-17T15:45:35.139Z,100247.34
2022-12-17T15:48:21.036Z,100275.78
2022-12-17T15:51:05.170Z,100278.50
2022-12-17T15:53:49.439Z,100279.19
2022-12-17T15:56:34.876Z,100274.34
2022-12-17T15:59:19.150Z,100277.00
2022-12-17T16:02:04.678Z,100282.97
2022-12-17T16:04:48.705Z,100292.91
2022-12-17T16:07:37.136Z,100302.25
2022-12-17T16:10:21.465Z,100306.94
2022-12-17T16:13:05.399Z,100298.50
2022-12-17T16:16:03.438Z,100312.13
2022-12-17T16:18:49.291Z,100299.06
2022-12-17T16:21:33.300Z,100309.56
2022-12-17T16:24:17.823Z,100322.25
2022-12-17T16:27:04.542Z,100324.53
2022-12-17T16:29:48.849Z,100321.41
2022-12-17T16:32:36.565Z,100345.50
2022-12-17T16:35:25.148Z,100349.94
2022-12-17T16:38:09.065Z,100293.34
2022-12-17T16:40:56.428Z,100350.72
2022-12-17T16:43:40.536Z,100344.03
2022-12-17T16:46:29.751Z,100353.31
2022-12-17T16:49:16.433Z,100354.69
2022-12-17T16:52:02.315Z,100337.53
2022-12-17T16:54:46.171Z,100352.28
2022-12-17T16:57:30.001Z,100365.69
2022-12-17T17:00:15.120Z,100378.19
2022-12-17T17:02:59.017Z,100376.38
2022-12-17T17:05:45.652Z,100353.41
2022-12-17T17:08:31.023Z,100366.19
2022-12-17T17:11:16.739Z,100410.59
2022-12-17T17:14:02.780Z,100372.47
2022-12-17T17:16:46.558Z,100416.44
2022-12-17T17:19:30.291Z,100427.25
2022-12-17T17:22:14.262Z,100430.53
2022-12-17T17:24:59.306Z,100436.09
2022-12-17T17:27:43.027Z,100425.53
2022-12-17T17:30:27.478Z,100395.19
2022-12-17T17:33:11.375Z,100415.28
2022-12-17T17:35:58.500Z,100409.00
2022-12-17T17:38:46.808Z,100415.03
2022-12-17T17:41:33.748Z,100427.94
2022-12-17T17:44:17.514Z,100420.72
2022-12-17T17:47:02.162Z,100440.00
2022-12-17T17:49:46.111Z,100425.44
2022-12-17T17:52:29.902Z,100426.78
2022-12-17T17:55:13.709Z,100423.25
2022-12-17T17:57:58.946Z,100425.06
2022-12-17T18:00:42.777Z,100426.81
2022-12-17T18:03:26.555Z,100418.22
2022-12-17T18:06:13.219Z,100404.69
2022-12-17T18:08:57.639Z,100437.47
2022-12-17T18:11:43.457Z,100394.72
2022-12-17T18:14:27.957Z,100427.72
2022-12-17T18:17:11.698Z,100442.31
2022-12-17T18:19:56.565Z,100424.97
2022-12-17T18:22:40.248Z,100415.97
2022-12-17T18:25:23.972Z,100434.34
2022-12-17T18:28:07.633Z,100440.34
2022-12-17T18:30:52.761Z,100442.06
2022-12-17T18:33:37.768Z,100414.66
2022-12-17T18:36:23.683Z,100443.69
2022-12-17T18:39:09.578Z,100450.25
2022-12-17T18:42:11.550Z,100415.25
2022-12-17T18:44:55.243Z,100458.28
2022-12-17T18:47:40.412Z,100463.41
2022-12-17T18:50:24.166Z,100454.09
2022-12-17T18:53:07.898Z,100459.81
2022-12-17T18:55:51.817Z,100448.09
2022-12-17T18:58:35.864Z,100446.47
2022-12-17T19:01:22.051Z,100409.91
2022-12-17T19:04:08.875Z,100457.13
2022-12-17T19:06:53.748Z,100442.13
2022-12-17T19:09:39.658Z,100433.63
2022-12-17T19:12:23.942Z,100356.50
2022-12-17T19:15:09.029Z,100464.97
2022-12-17T19:17:53.017Z,100408.28
2022-12-17T19:20:38.543Z,100422.69
2022-12-17T19:23:22.616Z,100438.72
2022-12-17T19:26:07.864Z,100465.75
2022-12-17T19:28:53.973Z,100436.16
2022-12-17T19:31:38.288Z,100470.13
2022-12-17T19:34:22.389Z,100470.50
2022-12-17T19:37:08.086Z,100494.25
2022-12-17T19:39:52.768Z,100491.28
2022-12-17T19:42:37.832Z,100497.34
2022-12-17T19:45:22.046Z,100471.53
2022-12-17T19:48:06.173Z,100518.03
2022-12-17T19:50:57.764Z,100513.13
2022-12-17T19:53:44.570Z,100496.66
2022-12-17T19:56:30.795Z,100491.44
2022-12-17T19:59:14.943Z,100498.19
2022-12-17T20:02:03.732Z,100471.53
2022-12-17T20:04:48.117Z,100492.44
2022-12-17T20:07:32.106Z,100492.78
2022-12-17T20:10:17.751Z,100550.94
2022-12-17T20:13:01.809Z,100509.59
2022-12-17T20:15:46.268Z,100506.31
2022-12-17T20:18:30.238Z,100504.59
2022-12-17T20:21:14.748Z,100546.19
2022-12-17T20:23:58.573Z,100560.78
2022-12-17T20:26:44.291Z,100546.97
2022-12-17T20:29:28.271Z,100560.00
2022-12-17T20:32:12.052Z,100568.50
2022-12-17T20:34:55.786Z,100575.78
2022-12-17T20:37:39.624Z,100591.59
2022-12-17T20:40:23.254Z,100595.00
2022-12-17T20:43:08.784Z,100599.78
2022-12-17T20:45:55.337Z,100565.59
2022-12-17T20:48:40.776Z,100587.03
2022-12-17T20:51:27.109Z,100610.34
2022-12-17T20:54:11.565Z,100484.75
2022-12-17T20:56:55.265Z,100594.38
2022-12-17T20:59:40.370Z,100601.94
2022-12-17T21:02:24.273Z,100609.75
2022-12-17T21:05:08.823Z,100617.97
2022-12-17T21:07:52.609Z,100621.56
2022-12-17T21:10:36.603Z,100628.63
2022-12-17T21:13:32.122Z,100611.16
2022-12-17T21:16:18.929Z,100619.09
2022-12-17T21:19:03.956Z,100633.22
2022-12-17T21:21:48.062Z,100642.50
2022-12-17T21:24:32.023Z,100644.63
2022-12-17T21:27:17.333Z,100607.09
2022-12-17T21:30:01.281Z,100611.75
2022-12-17T21:32:51.184Z,100622.59
2022-12-17T21:35:35.024Z,100653.25
2022-12-17T21:38:18.807Z,100672.47
2022-12-17T21:41:06.179Z,100666.03
2022-12-17T21:43:55.065Z,100668.22
2022-12-17T21:46:38.918Z,100662.66
2022-12-17T21:49:24.148Z,100667.03
2022-12-17T21:52:10.966Z,100670.44
2022-12-17T21:54:55.097Z,100657.25
2022-12-17T21:57:39.177Z,100667.59
2022-12-17T22:00:24.518Z,100658.41
2022-12-17T22:03:08.883Z,100669.13
2022-12-17T22:05:54.016Z,100678.19
2022-12-17T22:08:38.714Z,100674.00
2022-12-17T22:11:25.531Z,100679.03
2022-12-17T22:14:16.999Z,100683.06
2022-12-17T22:17:04.290Z,100687.78
2022-12-17T22:19:48.009Z,100693.34
2022-12-17T22:22:33.118Z,100571.88
2022-12-17T22:25:17.223Z,100679.63
2022-12-17T22:28:01.003Z,100668.56
2022-12-17T22:31:02.525Z,100656.00
2022-12-17T22:34:50.675Z,100624.19
2022-12-17T22:40:34.309Z,100674.28
2022-12-17T22:44:30.961Z,100657.44
2022-12-17T22:44:37.717Z,100689.50
2022-12-17T22:46:24.258Z,100703.50
2022-12-17T22:49:08.123Z,100697.44
2022-12-17T22:51:51.908Z,100674.13
2022-12-17T22:54:35.628Z,100695.63
2022-12-17T22:57:36.891Z,100729.63
2022-12-17T23:00:23.974Z,100736.78
2022-12-17T23:03:07.739Z,100713.81
2022-12-17T23:05:51.668Z,100750.53
2022-12-17T23:08:35.530Z,100765.13
2022-12-17T23:11:21.624Z,100768.28
2022-12-17T23:14:09.399Z,100765.34
2022-12-17T23:16:53.477Z,100719.06
2022-12-17T23:19:37.826Z,100749.16
2022-12-17T23:22:22.491Z,100724.59
2022-12-17T23:25:07.161Z,100728.78
2022-12-17T23:27:51.327Z,100765.31
2022-12-17T23:30:37.908Z,100728.91
2022-12-17T23:33:21.964Z,100787.03
2022-12-17T23:36:07.730Z,100755.97
2022-12-17T23:38:52.561Z,100752.13
2022-12-17T23:41:36.651Z,100749.13
2022-12-17T23:44:20.652Z,100707.03
2022-12-17T23:47:07.396Z,100747.84
2022-12-17T23:49:51.499Z,100809.19
2022-12-17T23:52:35.570Z,100807.16
2022-12-17T23:55:19.460Z,100798.03
2022-12-17T23:58:03.321Z,100789.88
